PWSweather.com
Personal Weather Stations
Station Observations
KNYSYRAC2
Fairmount Hills, Fairmount, NY 13219

Fairmount HillsFairmount, NY 13219

Lat: 43.03602, Lon: -76.247151

Elevation: 663

Station Type: Ambient Weather WS-2080

http://weather.cerchia.com

High Low Average
Temperature 82.7°F28.2°F 67.0°F19.4°F 73.2°F22.9°F
Dew Point 75.6°F24.2°F 60.9°F16.1°F 68.1°F20.1°F
Winds 5.3 mph SW8.5 mph SW Calm Calm 1.7 mph 2.7 mph
Wind Gusts 15.1 mph24.3 mph -- 5.6 mph9.0 mph
Humidity 100% 64% 85%
Pressure 29.94 in1013.90 in 29.82 in1009.80 in -
Precipitation 4.23 in107.40 in - -
Hour Temp Dew Point Humidity Winds Wind Gusts Pressure Precip Precip Rate Daily Precip Total
12:00 AM 74.4°F23.6°C 61.8°F16.6°C 65% Calm Calm 2.0 mph3.2 kmh 29.94 in1013.9 mb 0.00 in0.0 mm 0.00 in0.0 mm 0.00 in0.0 mm
12:15 AM 74.7°F23.7°C 61.7°F16.5°C 64% 0.7 mph SE1.1 kmh SE 2.8 mph4.5 kmh 29.93 in1013.5 mb 0.00 in0.0 mm 0.00 in0.0 mm 0.00 in0.0 mm
12:30 AM 75.1°F23.9°C 62.1°F16.7°C 64% 0.8 mph SE1.3 kmh SE 2.8 mph4.5 kmh 29.92 in1013.2 mb 0.00 in0.0 mm 0.00 in0.0 mm 0.00 in0.0 mm
12:45 AM 74.2°F23.4°C 61.7°F16.5°C 65% 0.5 mph NE0.8 kmh NE 2.8 mph4.5 kmh 29.92 in1013.2 mb 0.00 in0.0 mm 0.00 in0.0 mm 0.00 in0.0 mm
01:00 AM 73.1°F22.8°C 61.5°F16.4°C 67% Calm Calm -- 29.92 in1013.2 mb 0.00 in0.0 mm 0.00 in0.0 mm 0.00 in0.0 mm
01:15 AM 71.7°F22.1°C 61.0°F16.1°C 69% Calm Calm -- 29.91 in1012.9 mb 0.00 in0.0 mm 0.00 in0.0 mm 0.00 in0.0 mm
01:30 AM 70.8°F21.6°C 60.9°F16.1°C 71% Calm Calm -- 29.91 in1012.9 mb 0.00 in0.0 mm 0.00 in0.0 mm 0.00 in0.0 mm
01:45 AM 69.9°F21.1°C 61.6°F16.4°C 75% Calm Calm -- 29.91 in1012.9 mb 0.00 in0.0 mm 0.00 in0.0 mm 0.00 in0.0 mm
02:00 AM 69.2°F20.7°C 61.3°F16.3°C 76% Calm Calm -- 29.91 in1012.9 mb 0.00 in0.0 mm 0.00 in0.0 mm 0.00 in0.0 mm
02:15 AM 68.8°F20.4°C 61.3°F16.3°C 77% Calm Calm -- 29.91 in1012.9 mb 0.00 in0.0 mm 0.00 in0.0 mm 0.00 in0.0 mm
02:30 AM 68.8°F20.4°C 61.7°F16.5°C 78% Calm Calm -- 29.91 in1012.9 mb 0.00 in0.0 mm 0.00 in0.0 mm 0.00 in0.0 mm
02:45 AM 68.8°F20.4°C 61.7°F16.5°C 78% Calm Calm -- 29.91 in1012.9 mb 0.00 in0.0 mm 0.00 in0.0 mm 0.00 in0.0 mm
03:00 AM 68.4°F20.2°C 61.7°F16.5°C 79% Calm Calm -- 29.91 in1012.9 mb 0.00 in0.0 mm 0.00 in0.0 mm 0.00 in0.0 mm
03:15 AM 68.3°F20.2°C 61.9°F16.6°C 80% Calm Calm -- 29.90 in1012.5 mb 0.00 in0.0 mm 0.00 in0.0 mm 0.00 in0.0 mm
03:30 AM 67.9°F19.9°C 61.9°F16.6°C 81% 0.1 mph E0.2 kmh E 2.0 mph3.2 kmh 29.90 in1012.5 mb 0.00 in0.0 mm 0.00 in0.0 mm 0.00 in0.0 mm
03:45 AM 67.7°F19.8°C 61.7°F16.5°C 81% Calm Calm -- 29.89 in1012.2 mb 0.00 in0.0 mm 0.00 in0.0 mm 0.00 in0.0 mm
04:00 AM 67.4°F19.7°C 61.7°F16.5°C 82% Calm Calm 2.0 mph3.2 kmh 29.89 in1012.2 mb 0.00 in0.0 mm 0.00 in0.0 mm 0.00 in0.0 mm
04:15 AM 67.2°F19.6°C 61.8°F16.6°C 83% Calm Calm 2.0 mph3.2 kmh 29.89 in1012.2 mb 0.00 in0.0 mm 0.00 in0.0 mm 0.00 in0.0 mm
04:30 AM 68.8°F20.4°C 62.0°F16.7°C 79% 0.3 mph E0.5 kmh E 2.8 mph4.5 kmh 29.90 in1012.5 mb 0.00 in0.0 mm 0.00 in0.0 mm 0.00 in0.0 mm
04:45 AM 68.3°F20.2°C 61.9°F16.6°C 80% 0.8 mph NE1.3 kmh NE 2.8 mph4.5 kmh 29.90 in1012.5 mb 0.00 in0.0 mm 0.00 in0.0 mm 0.00 in0.0 mm
05:00 AM 68.1°F20.1°C 62.0°F16.7°C 81% Calm Calm -- 29.90 in1012.5 mb 0.00 in0.0 mm 0.00 in0.0 mm 0.00 in0.0 mm
05:15 AM 67.7°F19.8°C 62.0°F16.7°C 82% Calm Calm -- 29.90 in1012.5 mb 0.00 in0.0 mm 0.00 in0.0 mm 0.00 in0.0 mm
05:30 AM 67.5°F19.7°C 62.2°F16.8°C 83% Calm Calm -- 29.90 in1012.5 mb 0.00 in0.0 mm 0.00 in0.0 mm 0.00 in0.0 mm
05:45 AM 67.4°F19.7°C 62.4°F16.9°C 84% Calm Calm -- 29.89 in1012.2 mb 0.00 in0.0 mm 0.00 in0.0 mm 0.00 in0.0 mm
06:00 AM 67.0°F19.4°C 62.0°F16.7°C 84% Calm Calm -- 29.89 in1012.2 mb 0.00 in0.0 mm 0.00 in0.0 mm 0.00 in0.0 mm
06:15 AM 67.2°F19.6°C 62.5°F16.9°C 85% Calm Calm -- 29.89 in1012.2 mb 0.00 in0.0 mm 0.00 in0.0 mm 0.00 in0.0 mm
06:30 AM 67.5°F19.7°C 62.9°F17.2°C 85% Calm Calm -- 29.90 in1012.5 mb 0.00 in0.0 mm 0.00 in0.0 mm 0.00 in0.0 mm
06:45 AM 67.7°F19.8°C 63.0°F17.2°C 85% Calm Calm 0.8 mph1.3 kmh 29.89 in1012.2 mb 0.00 in0.0 mm 0.00 in0.0 mm 0.00 in0.0 mm
07:00 AM 69.0°F20.6°C 63.6°F17.6°C 83% 0.3 mph E0.5 kmh E 2.0 mph3.2 kmh 29.89 in1012.2 mb 0.00 in0.0 mm 0.00 in0.0 mm 0.00 in0.0 mm
07:15 AM 72.6°F22.6°C 64.2°F17.9°C 75% 1.7 mph SE2.7 kmh SE 3.9 mph6.3 kmh 29.89 in1012.2 mb 0.00 in0.0 mm 0.00 in0.0 mm 0.00 in0.0 mm
07:30 AM 73.8°F23.2°C 63.8°F17.7°C 71% 0.4 mph ENE0.6 kmh ENE 2.8 mph4.5 kmh 29.89 in1012.2 mb 0.00 in0.0 mm 0.00 in0.0 mm 0.00 in0.0 mm
07:45 AM 74.4°F23.6°C 64.4°F18.0°C 71% 0.5 mph N0.8 kmh N 3.9 mph6.3 kmh 29.89 in1012.2 mb 0.00 in0.0 mm 0.00 in0.0 mm 0.00 in0.0 mm
08:00 AM 74.0°F23.3°C 66.0°F18.9°C 76% 0.1 mph NE0.2 kmh NE 2.8 mph4.5 kmh 29.89 in1012.2 mb 0.00 in0.0 mm 0.00 in0.0 mm 0.00 in0.0 mm
08:15 AM 74.7°F23.7°C 65.9°F18.8°C 74% 0.1 mph NE0.2 kmh NE 3.9 mph6.3 kmh 29.88 in1011.9 mb 0.00 in0.0 mm 0.00 in0.0 mm 0.00 in0.0 mm
08:30 AM 75.6°F24.2°C 67.2°F19.6°C 75% 0.2 mph NE0.3 kmh NE 2.8 mph4.5 kmh 29.88 in1011.9 mb 0.00 in0.0 mm 0.00 in0.0 mm 0.00 in0.0 mm
08:45 AM 76.4°F24.7°C 66.7°F19.3°C 72% 0.5 mph NE0.8 kmh NE 3.9 mph6.3 kmh 29.89 in1012.2 mb 0.00 in0.0 mm 0.00 in0.0 mm 0.00 in0.0 mm
09:00 AM 76.5°F24.7°C 66.8°F19.3°C 72% 1.3 mph ENE2.1 kmh ENE 4.8 mph7.7 kmh 29.89 in1012.2 mb 0.00 in0.0 mm 0.00 in0.0 mm 0.00 in0.0 mm
09:15 AM 75.3°F24.1°C 67.2°F19.6°C 76% 1.7 mph NE2.7 kmh NE 4.8 mph7.7 kmh 29.90 in1012.5 mb 0.00 in0.0 mm 0.00 in0.0 mm 0.00 in0.0 mm
09:30 AM 74.4°F23.6°C 67.4°F19.7°C 79% 0.9 mph N1.4 kmh N 4.8 mph7.7 kmh 29.91 in1012.9 mb 0.01 in0.3 mm 0.04 in1.0 mm 0.01 in0.3 mm
09:45 AM 71.5°F21.9°C 67.1°F19.5°C 86% 1.8 mph NW2.9 kmh NW 6.7 mph10.8 kmh 29.90 in1012.5 mb 0.19 in4.8 mm 0.72 in18.3 mm 0.19 in4.8 mm
10:00 AM 69.3°F20.7°C 67.2°F19.6°C 93% 3.2 mph W5.1 kmh W 8.7 mph14.0 kmh 29.93 in1013.5 mb 0.51 in13.0 mm 0.43 in10.9 mm 0.51 in13.0 mm
10:15 AM 69.0°F20.6°C 68.4°F20.2°C 98% 5.1 mph WSW8.2 kmh WSW 15.1 mph24.3 kmh 29.91 in1012.9 mb 0.71 in18.0 mm 0.80 in20.3 mm 0.71 in18.0 mm
10:30 AM 69.3°F20.7°C 69.3°F20.7°C 100% 1.1 mph S1.8 kmh S 4.8 mph7.7 kmh 29.92 in1013.2 mb 0.72 in18.3 mm 0.04 in1.0 mm 0.73 in18.5 mm
10:45 AM 69.7°F20.9°C 69.7°F20.9°C 100% 1.1 mph SSE1.8 kmh SSE 4.8 mph7.7 kmh 29.92 in1013.2 mb 0.56 in14.2 mm 0.00 in0.0 mm 0.74 in18.8 mm
11:00 AM 69.7°F20.9°C 69.7°F20.9°C 100% 1.9 mph SSE3.1 kmh SSE 5.6 mph9.0 kmh 29.91 in1012.9 mb 0.25 in6.4 mm 0.00 in0.0 mm 0.76 in19.3 mm
11:15 AM 69.5°F20.8°C 69.5°F20.8°C 100% 2.4 mph S3.9 kmh S 5.6 mph9.0 kmh 29.92 in1013.2 mb 0.05 in1.3 mm 0.00 in0.0 mm 0.76 in19.3 mm
11:30 AM 69.5°F20.8°C 69.5°F20.8°C 100% 1.5 mph SSE2.4 kmh SSE 3.9 mph6.3 kmh 29.90 in1012.5 mb 0.02 in0.5 mm 0.00 in0.0 mm 0.76 in19.3 mm
11:45 AM 70.1°F21.2°C 70.1°F21.2°C 100% 1.4 mph S2.3 kmh S 5.6 mph9.0 kmh 29.89 in1012.2 mb 0.01 in0.3 mm 0.00 in0.0 mm 0.76 in19.3 mm
12:00 PM 70.8°F21.6°C 70.8°F21.6°C 100% 1.4 mph SW2.3 kmh SW 4.8 mph7.7 kmh 29.88 in1011.9 mb 0.00 in0.0 mm 0.00 in0.0 mm 0.76 in19.3 mm
12:15 PM 71.9°F22.2°C 71.9°F22.2°C 100% 0.2 mph ESE0.3 kmh ESE 2.8 mph4.5 kmh 29.86 in1011.2 mb 0.00 in0.0 mm 0.00 in0.0 mm 0.76 in19.3 mm
12:30 PM 72.4°F22.4°C 72.4°F22.4°C 100% 0.7 mph N1.1 kmh N 3.9 mph6.3 kmh 29.87 in1011.5 mb 0.00 in0.0 mm 0.00 in0.0 mm 0.76 in19.3 mm
12:45 PM 73.3°F22.9°C 73.3°F22.9°C 100% 0.6 mph NW1.0 kmh NW 3.9 mph6.3 kmh 29.87 in1011.5 mb 0.00 in0.0 mm 0.00 in0.0 mm 0.76 in19.3 mm
01:00 PM 74.4°F23.6°C 74.4°F23.6°C 100% 1.8 mph SW2.9 kmh SW 4.8 mph7.7 kmh 29.87 in1011.5 mb 0.00 in0.0 mm 0.00 in0.0 mm 0.76 in19.3 mm
01:15 PM 76.2°F24.6°C 75.6°F24.2°C 98% 1.6 mph NW2.6 kmh NW 9.5 mph15.3 kmh 29.86 in1011.2 mb 0.01 in0.3 mm 0.04 in1.0 mm 0.77 in19.6 mm
01:30 PM 78.0°F25.6°C 74.1°F23.4°C 88% 3.2 mph WSW5.1 kmh WSW 6.7 mph10.8 kmh 29.85 in1010.8 mb 0.01 in0.3 mm 0.00 in0.0 mm 0.77 in19.6 mm
01:45 PM 78.3°F25.7°C 72.7°F22.6°C 83% 4.1 mph SW6.6 kmh SW 9.5 mph15.3 kmh 29.85 in1010.8 mb 0.01 in0.3 mm 0.00 in0.0 mm 0.77 in19.6 mm
02:00 PM 78.3°F25.7°C 72.7°F22.6°C 83% 1.7 mph SSW2.7 kmh SSW 5.6 mph9.0 kmh 29.85 in1010.8 mb 0.01 in0.3 mm 0.00 in0.0 mm 0.77 in19.6 mm
02:15 PM 77.4°F25.2°C 72.9°F22.7°C 86% 1.5 mph S2.4 kmh S 5.6 mph9.0 kmh 29.86 in1011.2 mb 0.00 in0.0 mm 0.00 in0.0 mm 0.77 in19.6 mm
02:30 PM 77.1°F25.1°C 72.9°F22.7°C 87% 1.2 mph SSW1.9 kmh SSW 5.6 mph9.0 kmh 29.87 in1011.5 mb 0.00 in0.0 mm 0.00 in0.0 mm 0.77 in19.6 mm
02:45 PM 76.2°F24.6°C 72.4°F22.4°C 88% 4.1 mph SW6.6 kmh SW 9.5 mph15.3 kmh 29.87 in1011.5 mb 0.00 in0.0 mm 0.00 in0.0 mm 0.77 in19.6 mm
03:00 PM 75.1°F23.9°C 72.0°F22.2°C 90% 5.1 mph WSW8.2 kmh WSW 14.3 mph23.0 kmh 29.86 in1011.2 mb 0.02 in0.5 mm 0.03 in0.8 mm 0.79 in20.1 mm
03:15 PM 73.8°F23.2°C 72.6°F22.6°C 96% 2.6 mph S4.2 kmh S 8.7 mph14.0 kmh 29.85 in1010.8 mb 0.05 in1.3 mm 0.12 in3.0 mm 0.81 in20.6 mm
03:30 PM 73.3°F22.9°C 72.7°F22.6°C 98% 1.9 mph S3.1 kmh S 8.7 mph14.0 kmh 29.84 in1010.5 mb 0.06 in1.5 mm 0.04 in1.0 mm 0.83 in21.1 mm
03:45 PM 72.6°F22.6°C 72.0°F22.2°C 98% 2.7 mph SSW4.3 kmh SSW 10.3 mph16.6 kmh 29.84 in1010.5 mb 0.06 in1.5 mm 0.00 in0.0 mm 0.83 in21.1 mm
04:00 PM 72.4°F22.4°C 72.1°F22.3°C 99% 3.1 mph S5.0 kmh S 8.7 mph14.0 kmh 29.84 in1010.5 mb 0.04 in1.0 mm 0.00 in0.0 mm 0.83 in21.1 mm
04:15 PM 72.6°F22.6°C 72.3°F22.4°C 99% 2.2 mph S3.5 kmh S 10.3 mph16.6 kmh 29.83 in1010.2 mb 0.01 in0.3 mm 0.00 in0.0 mm 0.83 in21.1 mm
04:30 PM 72.6°F22.6°C 72.0°F22.2°C 98% 1.9 mph SSW3.1 kmh SSW 6.7 mph10.8 kmh 29.83 in1010.2 mb 0.00 in0.0 mm 0.00 in0.0 mm 0.83 in21.1 mm
04:45 PM 73.3°F22.9°C 72.7°F22.6°C 98% 2.1 mph SSW3.4 kmh SSW 6.7 mph10.8 kmh 29.83 in1010.2 mb 0.00 in0.0 mm 0.00 in0.0 mm 0.83 in21.1 mm
05:00 PM 74.7°F23.7°C 73.8°F23.2°C 97% 1.4 mph S2.3 kmh S 5.6 mph9.0 kmh 29.83 in1010.2 mb 0.00 in0.0 mm 0.00 in0.0 mm 0.83 in21.1 mm
05:15 PM 76.5°F24.7°C 73.4°F23.0°C 90% 2.5 mph SSE4.0 kmh SSE 9.5 mph15.3 kmh 29.83 in1010.2 mb 0.00 in0.0 mm 0.00 in0.0 mm 0.83 in21.1 mm
05:30 PM 79.4°F26.3°C 72.3°F22.4°C 79% 4.7 mph SSW7.6 kmh SSW 10.3 mph16.6 kmh 29.82 in1009.8 mb 0.00 in0.0 mm 0.00 in0.0 mm 0.83 in21.1 mm
05:45 PM 81.2°F27.3°C 72.5°F22.5°C 75% 3.7 mph SW6.0 kmh SW 11.5 mph18.5 kmh 29.82 in1009.8 mb 0.00 in0.0 mm 0.00 in0.0 mm 0.83 in21.1 mm
06:00 PM 82.1°F27.8°C 70.9°F21.6°C 69% 5.0 mph WSW8.0 kmh WSW 11.5 mph18.5 kmh 29.83 in1010.2 mb 0.00 in0.0 mm 0.00 in0.0 mm 0.83 in21.1 mm
06:15 PM 82.3°F27.9°C 71.5°F21.9°C 70% 3.0 mph WSW4.8 kmh WSW 8.7 mph14.0 kmh 29.82 in1009.8 mb 0.00 in0.0 mm 0.00 in0.0 mm 0.83 in21.1 mm
06:30 PM 82.7°F28.2°C 71.5°F21.9°C 69% 5.3 mph SW8.5 kmh SW 11.5 mph18.5 kmh 29.83 in1010.2 mb 0.00 in0.0 mm 0.00 in0.0 mm 0.83 in21.1 mm
06:45 PM 82.7°F28.2°C 71.9°F22.2°C 70% 3.2 mph SW5.1 kmh SW 8.7 mph14.0 kmh 29.83 in1010.2 mb 0.00 in0.0 mm 0.00 in0.0 mm 0.83 in21.1 mm
07:00 PM 81.6°F27.6°C 71.7°F22.1°C 72% 4.7 mph SW7.6 kmh SW 11.5 mph18.5 kmh 29.83 in1010.2 mb 0.00 in0.0 mm 0.00 in0.0 mm 0.83 in21.1 mm
07:15 PM 79.1°F26.2°C 71.6°F22.0°C 78% 2.7 mph WSW4.3 kmh WSW 9.5 mph15.3 kmh 29.82 in1009.8 mb 0.00 in0.0 mm 0.00 in0.0 mm 0.83 in21.1 mm
07:30 PM 78.0°F25.6°C 72.0°F22.2°C 82% 2.8 mph SSW4.5 kmh SSW 7.5 mph12.1 kmh 29.83 in1010.2 mb 0.00 in0.0 mm 0.00 in0.0 mm 0.83 in21.1 mm
07:45 PM 79.1°F26.2°C 72.7°F22.6°C 81% 4.0 mph SW6.4 kmh SW 9.5 mph15.3 kmh 29.83 in1010.2 mb 0.00 in0.0 mm 0.00 in0.0 mm 0.83 in21.1 mm
08:00 PM 78.3°F25.7°C 72.4°F22.4°C 82% 3.2 mph SW5.1 kmh SW 9.5 mph15.3 kmh 29.82 in1009.8 mb 0.00 in0.0 mm 0.00 in0.0 mm 0.83 in21.1 mm
08:15 PM 77.3°F25.2°C 72.4°F22.4°C 85% 3.0 mph SSW4.8 kmh SSW 10.3 mph16.6 kmh 29.83 in1010.2 mb 0.00 in0.0 mm 0.00 in0.0 mm 0.83 in21.1 mm
08:30 PM 76.4°F24.7°C 71.9°F22.2°C 86% 2.9 mph S4.7 kmh S 7.5 mph12.1 kmh 29.83 in1010.2 mb 0.00 in0.0 mm 0.00 in0.0 mm 0.83 in21.1 mm
08:45 PM 75.8°F24.3°C 72.3°F22.4°C 89% 2.1 mph SSW3.4 kmh SSW 8.7 mph14.0 kmh 29.83 in1010.2 mb 0.00 in0.0 mm 0.00 in0.0 mm 0.83 in21.1 mm
09:00 PM 75.3°F24.1°C 72.1°F22.3°C 90% 1.9 mph SSE3.1 kmh SSE 6.7 mph10.8 kmh 29.83 in1010.2 mb 0.00 in0.0 mm 0.00 in0.0 mm 0.83 in21.1 mm
09:15 PM 74.9°F23.8°C 72.1°F22.3°C 91% 1.8 mph S2.9 kmh S 7.5 mph12.1 kmh 29.82 in1009.8 mb 0.00 in0.0 mm 0.00 in0.0 mm 0.83 in21.1 mm
09:30 PM 75.1°F23.9°C 72.0°F22.2°C 90% 2.8 mph SSE4.5 kmh SSE 12.3 mph19.8 kmh 29.83 in1010.2 mb 0.00 in0.0 mm 0.00 in0.0 mm 0.83 in21.1 mm
09:45 PM 74.9°F23.8°C 72.1°F22.3°C 91% 2.7 mph S4.3 kmh S 15.1 mph24.3 kmh 29.84 in1010.5 mb 0.00 in0.0 mm 0.00 in0.0 mm 0.83 in21.1 mm
10:00 PM 74.7°F23.7°C 71.9°F22.2°C 91% 2.9 mph S4.7 kmh S 7.5 mph12.1 kmh 29.83 in1010.2 mb 0.00 in0.0 mm 0.00 in0.0 mm 0.83 in21.1 mm
10:15 PM 74.6°F23.7°C 71.8°F22.1°C 91% 3.3 mph SE5.3 kmh SE 13.4 mph21.6 kmh 29.84 in1010.5 mb 0.00 in0.0 mm 0.00 in0.0 mm 0.83 in21.1 mm
10:30 PM 73.7°F23.2°C 71.5°F21.9°C 93% 4.3 mph N6.9 kmh N 11.5 mph18.5 kmh 29.86 in1011.2 mb 0.21 in5.3 mm 0.84 in21.3 mm 1.04 in26.4 mm
10:45 PM 71.3°F21.8°C 69.5°F20.8°C 94% 2.3 mph WSW3.7 kmh WSW 7.5 mph12.1 kmh 29.86 in1011.2 mb 0.22 in5.6 mm 0.04 in1.0 mm 1.05 in26.7 mm
11:00 PM 71.0°F21.7°C 69.8°F21.0°C 96% 2.6 mph SW4.2 kmh SW 7.5 mph12.1 kmh 29.87 in1011.5 mb 0.22 in5.6 mm 0.00 in0.0 mm 1.05 in26.7 mm
11:15 PM 71.0°F21.7°C 70.4°F21.3°C 98% 4.0 mph SSW6.4 kmh SSW 9.5 mph15.3 kmh 29.87 in1011.5 mb 0.24 in6.1 mm 0.08 in2.0 mm 1.06 in26.9 mm
11:30 PM 71.5°F21.9°C 71.2°F21.8°C 99% 3.1 mph SW5.0 kmh SW 5.6 mph9.0 kmh 29.87 in1011.5 mb 0.02 in0.5 mm 0.00 in0.0 mm 1.06 in26.9 mm
11:45 PM 71.5°F21.9°C 71.5°F21.9°C 100% 3.6 mph SSW5.8 kmh SSW 9.5 mph15.3 kmh 29.88 in1011.9 mb 0.01 in0.3 mm 0.00 in0.0 mm 1.06 in26.9 mm